sensor_id;sensor_type;location;lat;lon;timestamp;P1;durP1;ratioP1;P2;durP2;ratioP2
45408;SDS011;31162;51.076;3.784;2023-05-20T00:00:32;17.95;;;11.60;;
45408;SDS011;31162;51.076;3.784;2023-05-20T00:02:58;16.88;;;11.60;;
45408;SDS011;31162;51.076;3.784;2023-05-20T00:05:24;17.80;;;11.75;;
45408;SDS011;31162;51.076;3.784;2023-05-20T00:07:50;19.08;;;11.80;;
45408;SDS011;31162;51.076;3.784;2023-05-20T00:10:16;19.73;;;12.00;;
45408;SDS011;31162;51.076;3.784;2023-05-20T00:12:42;16.25;;;12.05;;
45408;SDS011;31162;51.076;3.784;2023-05-20T00:15:08;18.02;;;11.48;;
45408;SDS011;31162;51.076;3.784;2023-05-20T00:17:36;13.10;;;11.68;;
45408;SDS011;31162;51.076;3.784;2023-05-20T00:20:02;14.32;;;10.93;;
45408;SDS011;31162;51.076;3.784;2023-05-20T00:22:29;17.40;;;11.38;;
45408;SDS011;31162;51.076;3.784;2023-05-20T00:24:55;17.05;;;11.02;;
45408;SDS011;31162;51.076;3.784;2023-05-20T00:27:20;15.85;;;11.10;;
45408;SDS011;31162;51.076;3.784;2023-05-20T00:29:46;13.57;;;10.25;;
45408;SDS011;31162;51.076;3.784;2023-05-20T00:32:12;18.30;;;10.43;;
45408;SDS011;31162;51.076;3.784;2023-05-20T00:34:38;18.25;;;10.73;;
45408;SDS011;31162;51.076;3.784;2023-05-20T00:37:03;20.38;;;10.38;;
45408;SDS011;31162;51.076;3.784;2023-05-20T00:39:30;13.07;;;9.77;;
45408;SDS011;31162;51.076;3.784;2023-05-20T00:41:55;13.98;;;9.73;;
45408;SDS011;31162;51.076;3.784;2023-05-20T00:44:24;15.30;;;9.82;;
45408;SDS011;31162;51.076;3.784;2023-05-20T00:46:50;17.15;;;10.60;;
45408;SDS011;31162;51.076;3.784;2023-05-20T00:49:17;10.88;;;9.75;;
45408;SDS011;31162;51.076;3.784;2023-05-20T00:51:43;14.95;;;9.45;;
45408;SDS011;31162;51.076;3.784;2023-05-20T00:54:12;12.10;;;8.75;;
45408;SDS011;31162;51.076;3.784;2023-05-20T00:56:38;13.82;;;8.88;;
45408;SDS011;31162;51.076;3.784;2023-05-20T00:59:05;12.45;;;9.27;;
45408;SDS011;31162;51.076;3.784;2023-05-20T01:01:30;11.35;;;8.95;;
45408;SDS011;31162;51.076;3.784;2023-05-20T01:03:56;11.95;;;8.85;;
45408;SDS011;31162;51.076;3.784;2023-05-20T01:06:22;15.95;;;8.27;;
45408;SDS011;31162;51.076;3.784;2023-05-20T01:08:48;10.88;;;7.78;;
45408;SDS011;31162;51.076;3.784;2023-05-20T01:11:19;12.63;;;8.35;;
45408;SDS011;31162;51.076;3.784;2023-05-20T01:13:53;11.50;;;8.05;;
45408;SDS011;31162;51.076;3.784;2023-05-20T01:18:48;11.98;;;7.75;;
45408;SDS011;31162;51.076;3.784;2023-05-20T01:21:19;12.05;;;7.50;;
45408;SDS011;31162;51.076;3.784;2023-05-20T01:23:46;12.07;;;8.40;;
45408;SDS011;31162;51.076;3.784;2023-05-20T01:26:12;11.93;;;7.40;;
45408;SDS011;31162;51.076;3.784;2023-05-20T01:28:39;11.35;;;7.45;;
45408;SDS011;31162;51.076;3.784;2023-05-20T01:31:09;11.18;;;7.20;;
45408;SDS011;31162;51.076;3.784;2023-05-20T01:33:47;10.10;;;7.53;;
45408;SDS011;31162;51.076;3.784;2023-05-20T01:36:18;12.48;;;7.47;;
45408;SDS011;31162;51.076;3.784;2023-05-20T01:38:46;11.00;;;7.40;;
45408;SDS011;31162;51.076;3.784;2023-05-20T01:41:13;8.05;;;7.22;;
45408;SDS011;31162;51.076;3.784;2023-05-20T01:43:39;10.77;;;7.47;;
45408;SDS011;31162;51.076;3.784;2023-05-20T01:46:05;9.35;;;8.00;;
45408;SDS011;31162;51.076;3.784;2023-05-20T01:48:31;8.20;;;6.88;;
45408;SDS011;31162;51.076;3.784;2023-05-20T01:50:57;10.15;;;6.63;;
45408;SDS011;31162;51.076;3.784;2023-05-20T01:53:22;9.70;;;6.93;;
45408;SDS011;31162;51.076;3.784;2023-05-20T01:55:48;10.75;;;7.22;;
45408;SDS011;31162;51.076;3.784;2023-05-20T01:58:15;10.20;;;6.53;;
45408;SDS011;31162;51.076;3.784;2023-05-20T02:00:40;11.15;;;6.57;;
45408;SDS011;31162;51.076;3.784;2023-05-20T02:03:06;7.63;;;6.40;;
45408;SDS011;31162;51.076;3.784;2023-05-20T02:05:31;10.60;;;6.20;;
45408;SDS011;31162;51.076;3.784;2023-05-20T02:07:57;11.27;;;6.10;;
45408;SDS011;31162;51.076;3.784;2023-05-20T02:10:23;9.93;;;6.10;;
45408;SDS011;31162;51.076;3.784;2023-05-20T02:12:48;7.28;;;5.90;;
45408;SDS011;31162;51.076;3.784;2023-05-20T02:15:14;9.10;;;6.40;;
45408;SDS011;31162;51.076;3.784;2023-05-20T02:17:42;10.85;;;5.97;;
45408;SDS011;31162;51.076;3.784;2023-05-20T02:20:08;10.95;;;6.47;;
45408;SDS011;31162;51.076;3.784;2023-05-20T02:22:34;7.47;;;6.32;;
45408;SDS011;31162;51.076;3.784;2023-05-20T02:25:00;9.50;;;5.88;;
45408;SDS011;31162;51.076;3.784;2023-05-20T02:27:26;9.45;;;5.97;;
45408;SDS011;31162;51.076;3.784;2023-05-20T02:29:52;7.75;;;6.25;;
45408;SDS011;31162;51.076;3.784;2023-05-20T02:32:17;9.18;;;6.22;;
45408;SDS011;31162;51.076;3.784;2023-05-20T02:34:44;8.00;;;6.10;;
45408;SDS011;31162;51.076;3.784;2023-05-20T02:37:10;10.10;;;6.20;;
45408;SDS011;31162;51.076;3.784;2023-05-20T02:39:36;7.97;;;6.20;;
45408;SDS011;31162;51.076;3.784;2023-05-20T02:42:01;9.45;;;6.25;;
45408;SDS011;31162;51.076;3.784;2023-05-20T02:44:28;9.52;;;6.32;;
45408;SDS011;31162;51.076;3.784;2023-05-20T02:46:54;12.82;;;6.72;;
45408;SDS011;31162;51.076;3.784;2023-05-20T02:49:20;13.27;;;7.53;;
45408;SDS011;31162;51.076;3.784;2023-05-20T02:51:45;11.88;;;7.25;;
45408;SDS011;31162;51.076;3.784;2023-05-20T02:54:11;8.48;;;6.30;;
45408;SDS011;31162;51.076;3.784;2023-05-20T02:56:37;7.95;;;6.72;;
45408;SDS011;31162;51.076;3.784;2023-05-20T02:59:02;9.82;;;6.60;;
45408;SDS011;31162;51.076;3.784;2023-05-20T03:01:29;11.65;;;6.10;;
45408;SDS011;31162;51.076;3.784;2023-05-20T03:03:54;10.60;;;6.32;;
45408;SDS011;31162;51.076;3.784;2023-05-20T03:06:20;9.18;;;6.35;;
45408;SDS011;31162;51.076;3.784;2023-05-20T03:08:45;12.32;;;6.07;;
45408;SDS011;31162;51.076;3.784;2023-05-20T03:11:11;10.00;;;6.10;;
45408;SDS011;31162;51.076;3.784;2023-05-20T03:13:37;7.57;;;6.65;;
45408;SDS011;31162;51.076;3.784;2023-05-20T03:16:03;10.35;;;6.57;;
45408;SDS011;31162;51.076;3.784;2023-05-20T03:18:29;13.02;;;7.15;;
45408;SDS011;31162;51.076;3.784;2023-05-20T03:20:54;7.68;;;6.00;;
45408;SDS011;31162;51.076;3.784;2023-05-20T03:23:20;10.75;;;6.28;;
45408;SDS011;31162;51.076;3.784;2023-05-20T03:25:46;8.65;;;5.65;;
45408;SDS011;31162;51.076;3.784;2023-05-20T03:28:12;8.52;;;6.00;;
45408;SDS011;31162;51.076;3.784;2023-05-20T03:30:38;9.68;;;6.70;;
45408;SDS011;31162;51.076;3.784;2023-05-20T03:33:03;8.93;;;6.50;;
45408;SDS011;31162;51.076;3.784;2023-05-20T03:35:30;9.60;;;6.53;;
45408;SDS011;31162;51.076;3.784;2023-05-20T03:37:55;11.00;;;6.45;;
45408;SDS011;31162;51.076;3.784;2023-05-20T03:40:22;8.45;;;6.03;;
45408;SDS011;31162;51.076;3.784;2023-05-20T03:42:48;8.80;;;7.30;;
45408;SDS011;31162;51.076;3.784;2023-05-20T03:45:15;10.20;;;6.43;;
45408;SDS011;31162;51.076;3.784;2023-05-20T03:47:41;10.13;;;7.00;;
45408;SDS011;31162;51.076;3.784;2023-05-20T03:50:07;12.50;;;7.10;;
45408;SDS011;31162;51.076;3.784;2023-05-20T03:52:33;8.25;;;6.55;;
45408;SDS011;31162;51.076;3.784;2023-05-20T03:54:58;9.57;;;6.40;;
45408;SDS011;31162;51.076;3.784;2023-05-20T03:57:24;10.15;;;6.35;;
45408;SDS011;31162;51.076;3.784;2023-05-20T03:59:50;8.93;;;6.53;;
45408;SDS011;31162;51.076;3.784;2023-05-20T04:02:16;8.32;;;6.45;;
45408;SDS011;31162;51.076;3.784;2023-05-20T04:04:41;8.95;;;6.25;;
45408;SDS011;31162;51.076;3.784;2023-05-20T04:07:08;8.40;;;6.45;;
45408;SDS011;31162;51.076;3.784;2023-05-20T04:09:33;10.35;;;6.55;;
45408;SDS011;31162;51.076;3.784;2023-05-20T04:11:59;7.30;;;6.53;;
45408;SDS011;31162;51.076;3.784;2023-05-20T04:14:25;8.65;;;6.80;;
45408;SDS011;31162;51.076;3.784;2023-05-20T04:16:51;9.60;;;6.78;;
45408;SDS011;31162;51.076;3.784;2023-05-20T04:19:17;12.48;;;6.85;;
45408;SDS011;31162;51.076;3.784;2023-05-20T04:21:43;10.93;;;6.90;;
45408;SDS011;31162;51.076;3.784;2023-05-20T04:24:09;9.55;;;6.35;;
45408;SDS011;31162;51.076;3.784;2023-05-20T04:26:35;9.18;;;6.85;;
45408;SDS011;31162;51.076;3.784;2023-05-20T04:29:01;11.13;;;6.63;;
45408;SDS011;31162;51.076;3.784;2023-05-20T04:31:28;12.18;;;6.93;;
45408;SDS011;31162;51.076;3.784;2023-05-20T04:33:57;12.18;;;6.82;;
45408;SDS011;31162;51.076;3.784;2023-05-20T04:36:22;8.07;;;6.90;;
45408;SDS011;31162;51.076;3.784;2023-05-20T04:38:58;9.48;;;6.88;;
45408;SDS011;31162;51.076;3.784;2023-05-20T04:41:24;9.02;;;6.32;;
45408;SDS011;31162;51.076;3.784;2023-05-20T04:43:51;8.90;;;6.30;;
45408;SDS011;31162;51.076;3.784;2023-05-20T04:46:17;8.60;;;6.45;;
45408;SDS011;31162;51.076;3.784;2023-05-20T04:48:44;10.27;;;6.28;;
45408;SDS011;31162;51.076;3.784;2023-05-20T04:51:11;10.48;;;6.57;;
45408;SDS011;31162;51.076;3.784;2023-05-20T04:53:37;8.63;;;6.07;;
45408;SDS011;31162;51.076;3.784;2023-05-20T04:56:04;9.20;;;6.63;;
45408;SDS011;31162;51.076;3.784;2023-05-20T04:58:30;8.80;;;6.40;;
45408;SDS011;31162;51.076;3.784;2023-05-20T05:00:57;7.88;;;6.28;;
45408;SDS011;31162;51.076;3.784;2023-05-20T05:03:23;10.43;;;6.10;;
45408;SDS011;31162;51.076;3.784;2023-05-20T05:05:48;9.85;;;6.45;;
45408;SDS011;31162;51.076;3.784;2023-05-20T05:08:14;9.35;;;6.28;;
45408;SDS011;31162;51.076;3.784;2023-05-20T05:10:41;9.90;;;6.45;;
45408;SDS011;31162;51.076;3.784;2023-05-20T05:13:07;9.27;;;6.03;;
45408;SDS011;31162;51.076;3.784;2023-05-20T05:15:32;10.30;;;6.18;;
45408;SDS011;31162;51.076;3.784;2023-05-20T05:17:58;9.52;;;5.55;;
45408;SDS011;31162;51.076;3.784;2023-05-20T05:20:23;7.90;;;6.10;;
45408;SDS011;31162;51.076;3.784;2023-05-20T05:22:49;7.47;;;6.20;;
45408;SDS011;31162;51.076;3.784;2023-05-20T05:25:15;9.70;;;6.28;;
45408;SDS011;31162;51.076;3.784;2023-05-20T05:27:41;7.50;;;6.75;;
45408;SDS011;31162;51.076;3.784;2023-05-20T05:30:07;8.85;;;6.45;;
45408;SDS011;31162;51.076;3.784;2023-05-20T05:32:33;10.15;;;6.25;;
45408;SDS011;31162;51.076;3.784;2023-05-20T05:34:58;10.38;;;6.20;;
45408;SDS011;31162;51.076;3.784;2023-05-20T05:37:24;8.63;;;5.97;;
45408;SDS011;31162;51.076;3.784;2023-05-20T05:39:50;10.90;;;6.43;;
45408;SDS011;31162;51.076;3.784;2023-05-20T05:42:16;9.10;;;6.25;;
45408;SDS011;31162;51.076;3.784;2023-05-20T05:44:41;9.60;;;5.35;;
45408;SDS011;31162;51.076;3.784;2023-05-20T05:47:08;8.35;;;5.70;;
45408;SDS011;31162;51.076;3.784;2023-05-20T05:49:34;9.13;;;6.15;;
45408;SDS011;31162;51.076;3.784;2023-05-20T05:52:00;8.43;;;5.88;;
45408;SDS011;31162;51.076;3.784;2023-05-20T05:54:26;8.55;;;5.50;;
45408;SDS011;31162;51.076;3.784;2023-05-20T05:56:54;9.05;;;5.32;;
45408;SDS011;31162;51.076;3.784;2023-05-20T05:59:22;8.73;;;5.43;;
45408;SDS011;31162;51.076;3.784;2023-05-20T06:01:50;6.50;;;5.15;;
45408;SDS011;31162;51.076;3.784;2023-05-20T06:04:16;8.25;;;5.60;;
45408;SDS011;31162;51.076;3.784;2023-05-20T06:06:41;8.30;;;5.28;;
45408;SDS011;31162;51.076;3.784;2023-05-20T06:09:07;11.57;;;5.90;;
45408;SDS011;31162;51.076;3.784;2023-05-20T06:11:33;8.98;;;4.95;;
45408;SDS011;31162;51.076;3.784;2023-05-20T06:13:58;5.93;;;4.93;;
45408;SDS011;31162;51.076;3.784;2023-05-20T06:16:25;11.00;;;4.97;;
45408;SDS011;31162;51.076;3.784;2023-05-20T06:18:50;8.43;;;5.10;;
45408;SDS011;31162;51.076;3.784;2023-05-20T06:21:17;6.82;;;5.32;;
45408;SDS011;31162;51.076;3.784;2023-05-20T06:23:42;6.45;;;5.20;;
45408;SDS011;31162;51.076;3.784;2023-05-20T06:26:08;6.15;;;5.10;;
45408;SDS011;31162;51.076;3.784;2023-05-20T06:28:34;6.80;;;5.18;;
45408;SDS011;31162;51.076;3.784;2023-05-20T06:31:00;7.63;;;5.15;;
45408;SDS011;31162;51.076;3.784;2023-05-20T06:33:25;8.30;;;5.25;;
45408;SDS011;31162;51.076;3.784;2023-05-20T06:35:53;8.80;;;5.07;;
45408;SDS011;31162;51.076;3.784;2023-05-20T06:38:19;8.25;;;5.22;;
45408;SDS011;31162;51.076;3.784;2023-05-20T06:40:45;7.20;;;4.45;;
45408;SDS011;31162;51.076;3.784;2023-05-20T06:43:12;6.68;;;5.10;;
45408;SDS011;31162;51.076;3.784;2023-05-20T06:45:38;8.45;;;4.82;;
45408;SDS011;31162;51.076;3.784;2023-05-20T06:48:04;8.43;;;4.78;;
45408;SDS011;31162;51.076;3.784;2023-05-20T06:50:30;9.93;;;4.57;;
45408;SDS011;31162;51.076;3.784;2023-05-20T06:52:56;10.55;;;5.00;;
45408;SDS011;31162;51.076;3.784;2023-05-20T06:55:21;7.88;;;4.95;;
45408;SDS011;31162;51.076;3.784;2023-05-20T06:57:47;5.63;;;4.20;;
45408;SDS011;31162;51.076;3.784;2023-05-20T07:00:13;5.55;;;4.22;;
45408;SDS011;31162;51.076;3.784;2023-05-20T07:02:38;8.15;;;4.90;;
45408;SDS011;31162;51.076;3.784;2023-05-20T07:05:06;9.63;;;4.40;;
45408;SDS011;31162;51.076;3.784;2023-05-20T07:07:32;7.90;;;4.45;;
45408;SDS011;31162;51.076;3.784;2023-05-20T07:09:58;8.45;;;4.72;;
45408;SDS011;31162;51.076;3.784;2023-05-20T07:12:23;6.22;;;4.30;;
45408;SDS011;31162;51.076;3.784;2023-05-20T07:14:49;7.00;;;4.45;;
45408;SDS011;31162;51.076;3.784;2023-05-20T07:17:18;5.55;;;4.63;;
45408;SDS011;31162;51.076;3.784;2023-05-20T07:19:44;4.35;;;3.92;;
45408;SDS011;31162;51.076;3.784;2023-05-20T07:22:10;6.22;;;4.75;;
45408;SDS011;31162;51.076;3.784;2023-05-20T07:24:36;7.05;;;4.50;;
45408;SDS011;31162;51.076;3.784;2023-05-20T07:27:02;7.57;;;4.15;;
45408;SDS011;31162;51.076;3.784;2023-05-20T07:29:28;6.63;;;4.25;;
45408;SDS011;31162;51.076;3.784;2023-05-20T07:31:53;4.90;;;4.30;;
45408;SDS011;31162;51.076;3.784;2023-05-20T07:34:19;5.95;;;4.18;;
45408;SDS011;31162;51.076;3.784;2023-05-20T07:36:46;10.50;;;4.63;;
45408;SDS011;31162;51.076;3.784;2023-05-20T07:39:12;5.97;;;4.55;;
45408;SDS011;31162;51.076;3.784;2023-05-20T07:41:39;6.03;;;4.75;;
45408;SDS011;31162;51.076;3.784;2023-05-20T07:44:05;7.28;;;5.00;;
45408;SDS011;31162;51.076;3.784;2023-05-20T07:46:33;10.90;;;4.95;;
45408;SDS011;31162;51.076;3.784;2023-05-20T07:48:59;6.20;;;4.85;;
45408;SDS011;31162;51.076;3.784;2023-05-20T07:51:24;9.32;;;4.65;;
45408;SDS011;31162;51.076;3.784;2023-05-20T07:53:50;5.18;;;4.40;;
45408;SDS011;31162;51.076;3.784;2023-05-20T07:56:16;5.63;;;4.55;;
45408;SDS011;31162;51.076;3.784;2023-05-20T07:58:41;7.03;;;4.65;;
45408;SDS011;31162;51.076;3.784;2023-05-20T08:01:07;7.28;;;4.50;;
45408;SDS011;31162;51.076;3.784;2023-05-20T08:03:34;5.00;;;4.32;;
45408;SDS011;31162;51.076;3.784;2023-05-20T08:06:01;7.57;;;4.88;;
45408;SDS011;31162;51.076;3.784;2023-05-20T08:08:27;6.97;;;4.13;;
45408;SDS011;31162;51.076;3.784;2023-05-20T08:10:54;6.00;;;4.50;;
45408;SDS011;31162;51.076;3.784;2023-05-20T08:13:20;7.28;;;4.57;;
45408;SDS011;31162;51.076;3.784;2023-05-20T08:15:46;6.45;;;4.20;;
45408;SDS011;31162;51.076;3.784;2023-05-20T08:18:15;5.97;;;4.47;;
45408;SDS011;31162;51.076;3.784;2023-05-20T08:20:41;6.65;;;4.15;;
45408;SDS011;31162;51.076;3.784;2023-05-20T08:23:09;9.55;;;5.13;;
45408;SDS011;31162;51.076;3.784;2023-05-20T08:25:34;6.45;;;4.57;;
45408;SDS011;31162;51.076;3.784;2023-05-20T08:28:02;7.03;;;4.30;;
45408;SDS011;31162;51.076;3.784;2023-05-20T08:30:33;7.22;;;4.70;;
45408;SDS011;31162;51.076;3.784;2023-05-20T08:32:59;5.10;;;4.60;;
45408;SDS011;31162;51.076;3.784;2023-05-20T08:35:28;6.07;;;4.28;;
45408;SDS011;31162;51.076;3.784;2023-05-20T08:37:53;6.72;;;4.60;;
45408;SDS011;31162;51.076;3.784;2023-05-20T08:40:19;6.80;;;4.20;;
45408;SDS011;31162;51.076;3.784;2023-05-20T08:42:46;7.15;;;4.30;;
45408;SDS011;31162;51.076;3.784;2023-05-20T08:45:17;6.47;;;4.53;;
45408;SDS011;31162;51.076;3.784;2023-05-20T08:47:44;4.68;;;4.28;;
45408;SDS011;31162;51.076;3.784;2023-05-20T08:50:10;5.65;;;4.15;;
45408;SDS011;31162;51.076;3.784;2023-05-20T08:52:37;9.90;;;4.25;;
45408;SDS011;31162;51.076;3.784;2023-05-20T08:55:13;6.68;;;4.38;;
45408;SDS011;31162;51.076;3.784;2023-05-20T08:57:46;5.93;;;4.47;;
45408;SDS011;31162;51.076;3.784;2023-05-20T09:00:14;8.10;;;3.88;;
45408;SDS011;31162;51.076;3.784;2023-05-20T09:02:41;6.15;;;4.00;;
45408;SDS011;31162;51.076;3.784;2023-05-20T09:05:08;11.45;;;3.95;;
45408;SDS011;31162;51.076;3.784;2023-05-20T09:07:35;4.28;;;3.65;;
45408;SDS011;31162;51.076;3.784;2023-05-20T09:10:01;3.90;;;3.38;;
45408;SDS011;31162;51.076;3.784;2023-05-20T09:12:27;7.63;;;3.63;;
45408;SDS011;31162;51.076;3.784;2023-05-20T09:14:53;7.90;;;3.55;;
45408;SDS011;31162;51.076;3.784;2023-05-20T09:17:20;6.75;;;4.00;;
45408;SDS011;31162;51.076;3.784;2023-05-20T09:19:50;4.45;;;3.92;;
45408;SDS011;31162;51.076;3.784;2023-05-20T09:22:21;18.17;;;5.10;;
45408;SDS011;31162;51.076;3.784;2023-05-20T09:24:52;5.13;;;3.42;;
45408;SDS011;31162;51.076;3.784;2023-05-20T09:27:21;10.15;;;4.32;;
45408;SDS011;31162;51.076;3.784;2023-05-20T09:29:48;7.47;;;4.05;;
45408;SDS011;31162;51.076;3.784;2023-05-20T09:32:14;8.02;;;4.40;;
45408;SDS011;31162;51.076;3.784;2023-05-20T09:34:40;6.75;;;4.00;;
45408;SDS011;31162;51.076;3.784;2023-05-20T09:37:07;8.65;;;4.35;;
45408;SDS011;31162;51.076;3.784;2023-05-20T09:42:36;4.32;;;3.30;;
45408;SDS011;31162;51.076;3.784;2023-05-20T09:45:14;7.53;;;4.70;;
45408;SDS011;31162;51.076;3.784;2023-05-20T09:47:42;11.98;;;4.47;;
45408;SDS011;31162;51.076;3.784;2023-05-20T09:50:09;5.53;;;3.35;;
45408;SDS011;31162;51.076;3.784;2023-05-20T09:52:37;6.28;;;2.75;;
45408;SDS011;31162;51.076;3.784;2023-05-20T09:55:07;7.28;;;3.03;;
45408;SDS011;31162;51.076;3.784;2023-05-20T09:57:34;6.57;;;2.70;;
45408;SDS011;31162;51.076;3.784;2023-05-20T10:00:02;7.22;;;2.40;;
45408;SDS011;31162;51.076;3.784;2023-05-20T10:02:30;16.77;;;3.90;;
45408;SDS011;31162;51.076;3.784;2023-05-20T10:04:57;5.95;;;2.35;;
45408;SDS011;31162;51.076;3.784;2023-05-20T10:12:50;14.10;;;3.03;;
45408;SDS011;31162;51.076;3.784;2023-05-20T10:20:56;5.38;;;2.55;;
45408;SDS011;31162;51.076;3.784;2023-05-20T10:23:28;3.53;;;2.85;;
45408;SDS011;31162;51.076;3.784;2023-05-20T10:25:55;6.25;;;2.78;;
45408;SDS011;31162;51.076;3.784;2023-05-20T10:28:32;5.10;;;3.00;;
45408;SDS011;31162;51.076;3.784;2023-05-20T10:31:00;7.45;;;2.65;;
45408;SDS011;31162;51.076;3.784;2023-05-20T10:33:26;5.10;;;2.65;;
45408;SDS011;31162;51.076;3.784;2023-05-20T10:35:54;5.20;;;2.50;;
45408;SDS011;31162;51.076;3.784;2023-05-20T10:38:23;28.15;;;5.05;;
45408;SDS011;31162;51.076;3.784;2023-05-20T10:40:48;6.40;;;2.30;;
45408;SDS011;31162;51.076;3.784;2023-05-20T10:43:35;17.48;;;3.28;;
45408;SDS011;31162;51.076;3.784;2023-05-20T10:46:00;13.57;;;2.97;;
45408;SDS011;31162;51.076;3.784;2023-05-20T10:48:27;5.03;;;2.55;;
45408;SDS011;31162;51.076;3.784;2023-05-20T10:51:02;10.00;;;3.42;;
45408;SDS011;31162;51.076;3.784;2023-05-20T10:53:37;9.23;;;2.75;;
45408;SDS011;31162;51.076;3.784;2023-05-20T10:56:04;7.60;;;2.78;;
45408;SDS011;31162;51.076;3.784;2023-05-20T10:58:37;7.30;;;2.45;;
45408;SDS011;31162;51.076;3.784;2023-05-20T11:01:03;7.68;;;2.80;;
45408;SDS011;31162;51.076;3.784;2023-05-20T11:03:29;6.07;;;2.55;;
45408;SDS011;31162;51.076;3.784;2023-05-20T11:05:55;4.78;;;2.15;;
45408;SDS011;31162;51.076;3.784;2023-05-20T11:08:21;4.72;;;2.60;;
45408;SDS011;31162;51.076;3.784;2023-05-20T11:10:46;5.45;;;2.85;;
45408;SDS011;31162;51.076;3.784;2023-05-20T11:13:12;11.20;;;2.80;;
45408;SDS011;31162;51.076;3.784;2023-05-20T11:15:41;4.30;;;2.47;;
45408;SDS011;31162;51.076;3.784;2023-05-20T11:18:09;6.32;;;2.50;;
45408;SDS011;31162;51.076;3.784;2023-05-20T11:20:36;10.68;;;3.13;;
45408;SDS011;31162;51.076;3.784;2023-05-20T11:23:01;10.10;;;2.88;;
45408;SDS011;31162;51.076;3.784;2023-05-20T11:25:27;6.32;;;2.33;;
45408;SDS011;31162;51.076;3.784;2023-05-20T11:27:53;3.55;;;2.25;;
45408;SDS011;31162;51.076;3.784;2023-05-20T11:30:19;7.75;;;2.55;;
45408;SDS011;31162;51.076;3.784;2023-05-20T11:32:58;12.68;;;2.53;;
45408;SDS011;31162;51.076;3.784;2023-05-20T11:35:25;7.00;;;2.40;;
45408;SDS011;31162;51.076;3.784;2023-05-20T11:38:04;4.82;;;2.20;;
45408;SDS011;31162;51.076;3.784;2023-05-20T11:40:32;8.43;;;2.40;;
45408;SDS011;31162;51.076;3.784;2023-05-20T11:43:00;7.03;;;2.88;;
45408;SDS011;31162;51.076;3.784;2023-05-20T11:45:27;4.97;;;2.38;;
45408;SDS011;31162;51.076;3.784;2023-05-20T11:48:06;5.88;;;2.53;;
45408;SDS011;31162;51.076;3.784;2023-05-20T11:50:36;4.60;;;2.20;;
45408;SDS011;31162;51.076;3.784;2023-05-20T11:53:05;3.92;;;1.88;;
45408;SDS011;31162;51.076;3.784;2023-05-20T11:55:32;2.45;;;1.75;;
45408;SDS011;31162;51.076;3.784;2023-05-20T11:57:59;4.88;;;1.98;;
45408;SDS011;31162;51.076;3.784;2023-05-20T12:00:26;14.60;;;2.88;;
45408;SDS011;31162;51.076;3.784;2023-05-20T12:02:52;5.57;;;2.30;;
45408;SDS011;31162;51.076;3.784;2023-05-20T12:05:18;4.93;;;2.75;;
45408;SDS011;31162;51.076;3.784;2023-05-20T12:07:44;6.57;;;2.30;;
45408;SDS011;31162;51.076;3.784;2023-05-20T12:10:10;9.88;;;2.30;;
45408;SDS011;31162;51.076;3.784;2023-05-20T12:12:37;5.97;;;1.98;;
45408;SDS011;31162;51.076;3.784;2023-05-20T12:15:05;5.65;;;1.85;;
45408;SDS011;31162;51.076;3.784;2023-05-20T12:17:42;2.65;;;2.10;;
45408;SDS011;31162;51.076;3.784;2023-05-20T12:20:11;6.15;;;2.47;;
45408;SDS011;31162;51.076;3.784;2023-05-20T12:22:38;3.33;;;2.47;;
45408;SDS011;31162;51.076;3.784;2023-05-20T12:25:04;3.45;;;2.47;;
45408;SDS011;31162;51.076;3.784;2023-05-20T12:27:30;3.42;;;2.35;;
45408;SDS011;31162;51.076;3.784;2023-05-20T12:29:57;5.10;;;2.22;;
45408;SDS011;31162;51.076;3.784;2023-05-20T12:32:23;7.85;;;2.60;;
45408;SDS011;31162;51.076;3.784;2023-05-20T12:34:49;5.07;;;2.08;;
45408;SDS011;31162;51.076;3.784;2023-05-20T12:37:15;3.35;;;1.80;;
45408;SDS011;31162;51.076;3.784;2023-05-20T12:39:40;10.07;;;2.97;;
45408;SDS011;31162;51.076;3.784;2023-05-20T12:42:06;3.83;;;1.90;;
45408;SDS011;31162;51.076;3.784;2023-05-20T12:44:32;4.57;;;2.08;;
45408;SDS011;31162;51.076;3.784;2023-05-20T12:46:57;4.22;;;2.40;;
45408;SDS011;31162;51.076;3.784;2023-05-20T12:49:23;3.47;;;2.30;;
45408;SDS011;31162;51.076;3.784;2023-05-20T12:51:48;2.97;;;2.55;;
45408;SDS011;31162;51.076;3.784;2023-05-20T12:54:15;3.53;;;2.40;;
45408;SDS011;31162;51.076;3.784;2023-05-20T12:56:41;3.08;;;2.45;;
45408;SDS011;31162;51.076;3.784;2023-05-20T12:59:11;4.93;;;2.90;;
45408;SDS011;31162;51.076;3.784;2023-05-20T13:01:37;3.42;;;2.40;;
45408;SDS011;31162;51.076;3.784;2023-05-20T13:04:03;4.75;;;2.80;;
45408;SDS011;31162;51.076;3.784;2023-05-20T13:06:32;3.15;;;2.30;;
45408;SDS011;31162;51.076;3.784;2023-05-20T13:08:58;4.35;;;2.60;;
45408;SDS011;31162;51.076;3.784;2023-05-20T13:11:23;3.97;;;2.15;;
45408;SDS011;31162;51.076;3.784;2023-05-20T13:13:49;2.88;;;1.83;;
45408;SDS011;31162;51.076;3.784;2023-05-20T13:16:15;3.67;;;2.80;;
45408;SDS011;31162;51.076;3.784;2023-05-20T13:18:42;4.30;;;2.20;;
45408;SDS011;31162;51.076;3.784;2023-05-20T13:21:08;3.03;;;2.70;;
45408;SDS011;31162;51.076;3.784;2023-05-20T13:23:33;2.60;;;2.40;;
45408;SDS011;31162;51.076;3.784;2023-05-20T13:26:02;3.97;;;2.42;;
45408;SDS011;31162;51.076;3.784;2023-05-20T13:28:27;5.28;;;2.30;;
45408;SDS011;31162;51.076;3.784;2023-05-20T13:30:53;3.45;;;2.30;;
45408;SDS011;31162;51.076;3.784;2023-05-20T13:33:21;3.95;;;2.10;;
45408;SDS011;31162;51.076;3.784;2023-05-20T13:35:48;3.15;;;2.55;;
45408;SDS011;31162;51.076;3.784;2023-05-20T13:38:14;4.28;;;2.40;;
45408;SDS011;31162;51.076;3.784;2023-05-20T13:40:40;4.50;;;2.28;;
45408;SDS011;31162;51.076;3.784;2023-05-20T13:43:06;4.60;;;2.60;;
45408;SDS011;31162;51.076;3.784;2023-05-20T13:45:34;3.63;;;2.50;;
45408;SDS011;31162;51.076;3.784;2023-05-20T13:48:00;5.88;;;2.40;;
45408;SDS011;31162;51.076;3.784;2023-05-20T13:50:26;6.45;;;2.90;;
45408;SDS011;31162;51.076;3.784;2023-05-20T13:52:51;4.18;;;2.40;;
45408;SDS011;31162;51.076;3.784;2023-05-20T13:55:18;5.03;;;2.90;;
45408;SDS011;31162;51.076;3.784;2023-05-20T13:57:43;3.97;;;2.45;;
45408;SDS011;31162;51.076;3.784;2023-05-20T14:00:09;4.45;;;2.10;;
45408;SDS011;31162;51.076;3.784;2023-05-20T14:02:35;4.13;;;2.13;;
45408;SDS011;31162;51.076;3.784;2023-05-20T14:05:01;3.47;;;2.55;;
45408;SDS011;31162;51.076;3.784;2023-05-20T14:07:27;4.35;;;2.63;;
45408;SDS011;31162;51.076;3.784;2023-05-20T14:09:53;3.92;;;2.60;;
45408;SDS011;31162;51.076;3.784;2023-05-20T14:12:18;4.68;;;2.60;;
45408;SDS011;31162;51.076;3.784;2023-05-20T14:14:44;4.10;;;2.67;;
45408;SDS011;31162;51.076;3.784;2023-05-20T14:17:10;5.40;;;2.75;;
45408;SDS011;31162;51.076;3.784;2023-05-20T14:19:35;8.07;;;2.70;;
45408;SDS011;31162;51.076;3.784;2023-05-20T14:22:01;5.28;;;2.88;;
45408;SDS011;31162;51.076;3.784;2023-05-20T14:24:27;4.00;;;2.90;;
45408;SDS011;31162;51.076;3.784;2023-05-20T14:26:53;3.92;;;2.83;;
45408;SDS011;31162;51.076;3.784;2023-05-20T14:29:19;2.83;;;2.63;;
45408;SDS011;31162;51.076;3.784;2023-05-20T14:31:44;5.25;;;2.85;;
45408;SDS011;31162;51.076;3.784;2023-05-20T14:34:10;5.10;;;3.33;;
45408;SDS011;31162;51.076;3.784;2023-05-20T14:36:36;3.20;;;2.75;;
45408;SDS011;31162;51.076;3.784;2023-05-20T14:39:02;3.70;;;2.67;;
45408;SDS011;31162;51.076;3.784;2023-05-20T14:41:28;6.07;;;3.08;;
45408;SDS011;31162;51.076;3.784;2023-05-20T14:43:53;3.92;;;2.80;;
45408;SDS011;31162;51.076;3.784;2023-05-20T14:46:19;3.25;;;2.72;;
45408;SDS011;31162;51.076;3.784;2023-05-20T14:48:45;3.65;;;2.67;;
45408;SDS011;31162;51.076;3.784;2023-05-20T14:51:11;6.53;;;3.00;;
45408;SDS011;31162;51.076;3.784;2023-05-20T14:53:37;5.13;;;2.65;;
45408;SDS011;31162;51.076;3.784;2023-05-20T14:56:03;3.10;;;2.63;;